createdAt,value
2024-03-11T00:00:51.353Z,8.9
2024-03-11T00:10:51.615Z,8.9
2024-03-11T00:20:51.785Z,8.9
2024-03-11T00:30:51.945Z,8.8
2024-03-11T00:40:52.146Z,8.8
2024-03-11T00:50:52.400Z,8.7
2024-03-11T01:00:52.566Z,8.5
2024-03-11T01:10:52.788Z,8.4
2024-03-11T01:20:53.060Z,8.1
2024-03-11T01:30:53.180Z,7.9
2024-03-11T01:40:53.361Z,7.7
2024-03-11T01:50:53.629Z,7.5
2024-03-11T02:00:53.896Z,7.4
2024-03-11T02:10:54.003Z,7.4
2024-03-11T02:20:54.200Z,7.4
2024-03-11T02:30:54.406Z,7.4
2024-03-11T02:50:54.837Z,7.4
2024-03-11T03:00:54.986Z,7.4
2024-03-11T03:10:55.257Z,7.3
2024-03-11T03:20:55.420Z,7.3
2024-03-11T03:30:55.589Z,7.3
2024-03-11T03:40:55.828Z,7.3
2024-03-11T03:50:56.050Z,7.3
2024-03-11T04:00:56.227Z,7.2
2024-03-11T04:10:56.424Z,7.2
2024-03-11T04:20:56.628Z,7.3
2024-03-11T04:30:56.792Z,7.3
2024-03-11T04:40:56.995Z,7.2
2024-03-11T04:50:57.232Z,7.2
2024-03-11T05:00:57.464Z,7.2
2024-03-11T05:10:57.648Z,7.1
2024-03-11T05:20:57.858Z,7.1
2024-03-11T05:30:58.034Z,7.1
2024-03-11T05:40:58.234Z,7.1
2024-03-11T05:50:58.505Z,7.1
2024-03-11T06:00:58.665Z,7.1
2024-03-11T06:10:58.840Z,7.1
2024-03-11T06:20:59.085Z,7.1
2024-03-11T06:30:59.234Z,7.1
2024-03-11T06:40:59.482Z,7.2
2024-03-11T06:51:01.741Z,7.2
2024-03-11T07:00:59.877Z,7.3
2024-03-11T07:11:00.973Z,7.4
2024-03-11T07:21:00.253Z,7.5
2024-03-11T07:31:00.456Z,7.4
2024-03-11T07:41:00.666Z,7.4
2024-03-11T07:51:00.865Z,7.3
2024-03-11T08:11:01.293Z,7.3
2024-03-11T08:21:01.487Z,7.4
2024-03-11T08:31:01.680Z,7.4
2024-03-11T08:41:02.088Z,7.3
2024-03-11T08:51:02.077Z,7.4
2024-03-11T09:01:02.346Z,7.4
2024-03-11T09:11:02.490Z,7.5
2024-03-11T09:21:02.729Z,7.5
2024-03-11T09:31:02.952Z,7.6
2024-03-11T09:41:03.087Z,7.6
2024-03-11T09:51:03.292Z,7.7
2024-03-11T10:01:03.546Z,7.8
2024-03-11T10:11:03.743Z,7.8
2024-03-11T10:21:03.897Z,7.8
2024-03-11T10:31:04.188Z,7.9
2024-03-11T10:41:04.312Z,8
2024-03-11T10:51:04.493Z,8.1
2024-03-11T11:01:04.799Z,8.1
2024-03-11T11:11:04.953Z,8.2
2024-03-11T11:21:05.140Z,8.4
2024-03-11T11:31:05.349Z,8.4
2024-03-11T11:41:05.612Z,8.3
2024-03-11T11:51:05.729Z,8.3
2024-03-11T12:11:06.175Z,8.4
2024-03-11T12:21:06.369Z,8.3
2024-03-11T12:31:06.539Z,8.3
2024-03-11T12:41:06.715Z,8.2
2024-03-11T12:51:06.936Z,8.2
2024-03-11T13:01:07.192Z,8.1
2024-03-11T13:21:07.536Z,7.9
2024-03-11T13:31:11.574Z,7.9
2024-03-11T13:41:07.952Z,7.9
2024-03-11T13:51:08.158Z,7.9
2024-03-11T14:01:08.455Z,7.9
2024-03-11T14:11:08.567Z,7.9
2024-03-11T14:21:08.756Z,7.9
2024-03-11T14:31:08.960Z,7.9
2024-03-11T14:51:09.354Z,8
2024-03-11T15:01:09.684Z,8
2024-03-11T15:11:09.805Z,8.1
2024-03-11T15:21:09.963Z,8
2024-03-11T15:31:10.195Z,8
2024-03-11T15:41:10.362Z,7.9
2024-03-11T15:51:10.566Z,7.9
2024-03-11T16:01:10.820Z,7.8
2024-03-11T16:11:11.022Z,7.9
2024-03-11T16:21:11.178Z,7.9
2024-03-11T16:31:11.459Z,7.9
2024-03-11T16:41:11.582Z,7.9
2024-03-11T16:51:11.779Z,7.9
2024-03-11T17:01:12.078Z,7.9
2024-03-11T17:11:12.216Z,7.8
2024-03-11T17:31:12.666Z,7.8
2024-03-11T17:51:12.982Z,7.7
2024-03-11T18:01:13.550Z,7.7
2024-03-11T18:21:13.612Z,7.7
2024-03-11T18:31:13.842Z,7.7
2024-03-11T18:41:14.022Z,7.7
2024-03-11T18:51:14.210Z,7.7
2024-03-11T19:01:14.523Z,7.7
2024-03-11T19:11:14.640Z,7.7
2024-03-11T19:21:14.827Z,7.7
2024-03-11T19:31:15.060Z,7.6
2024-03-11T19:41:15.242Z,7.6
2024-03-11T19:51:15.420Z,7.6
2024-03-11T20:01:15.723Z,7.6
2024-03-11T20:11:15.898Z,7.7
2024-03-11T20:31:16.273Z,7.7
2024-03-11T20:41:16.448Z,7.7
2024-03-11T20:51:16.663Z,7.7
2024-03-11T21:01:16.903Z,7.6
2024-03-11T21:11:17.066Z,7.6
2024-03-11T21:21:17.262Z,7.6
2024-03-11T21:31:17.466Z,7.6
2024-03-11T21:41:17.653Z,7.6
2024-03-11T21:51:17.867Z,7.6
2024-03-11T22:01:18.084Z,7.5
2024-03-11T22:11:18.267Z,7.5
2024-03-11T22:21:18.465Z,7.6
2024-03-11T22:31:18.697Z,7.6
2024-03-11T22:41:18.890Z,7.7
2024-03-11T22:51:19.085Z,7.7
2024-03-11T23:01:19.361Z,7.7
2024-03-11T23:11:19.531Z,7.7
2024-03-11T23:21:19.682Z,7.7
2024-03-11T23:31:19.900Z,7.7
2024-03-11T23:41:20.095Z,7.7
2024-03-11T23:51:20.319Z,7.7
